createdAt,value
2022-08-18T00:01:51.576Z,50.79
2022-08-18T00:04:35.758Z,50.92
2022-08-18T00:07:02.585Z,50.99
2022-08-18T00:09:32.159Z,51.21
2022-08-18T00:12:01.995Z,50.92
2022-08-18T00:14:28.476Z,50.82
2022-08-18T00:16:54.998Z,50.75
2022-08-18T00:19:43.630Z,50.73
2022-08-18T00:22:14.601Z,50.80
2022-08-18T00:24:48.426Z,50.68
2022-08-18T00:27:19.503Z,51.06
2022-08-18T00:29:48.569Z,51.06
2022-08-18T00:32:17.927Z,51.04
2022-08-18T00:34:44.555Z,51.29
2022-08-18T00:37:10.990Z,51.64
2022-08-18T00:39:40.616Z,51.18
2022-08-18T00:42:28.684Z,51.24
2022-08-18T00:45:03.832Z,51.83
2022-08-18T00:47:36.448Z,51.75
2022-08-18T00:50:15.391Z,52.29
2022-08-18T00:52:45.193Z,51.90
2022-08-18T00:55:11.653Z,52.00
2022-08-18T00:57:38.098Z,51.72
2022-08-18T01:00:11.788Z,51.79
2022-08-18T01:02:45.198Z,51.85
2022-08-18T01:05:20.896Z,51.98
2022-08-18T01:07:48.773Z,52.17
2022-08-18T01:10:19.290Z,52.35
2022-08-18T01:12:50.440Z,52.63
2022-08-18T01:15:29.398Z,52.92
2022-08-18T01:18:19.279Z,52.58
2022-08-18T01:21:11.273Z,52.41
2022-08-18T01:23:38.371Z,52.84
2022-08-18T01:26:04.946Z,52.90
2022-08-18T01:28:34.051Z,53.18
2022-08-18T01:31:01.803Z,53.50
2022-08-18T01:33:32.554Z,53.34
2022-08-18T01:36:03.586Z,53.52
2022-08-18T01:38:32.132Z,53.79
2022-08-18T01:41:26.840Z,53.69
2022-08-18T01:43:46.809Z,53.54
2022-08-18T01:46:20.234Z,53.44
2022-08-18T01:48:48.699Z,53.56
2022-08-18T01:51:15.890Z,53.49
2022-08-18T01:53:42.408Z,53.34
2022-08-18T01:56:09.187Z,53.43
2022-08-18T01:58:36.542Z,53.62
2022-08-18T02:01:03.836Z,53.97
2022-08-18T02:03:36.639Z,53.71
2022-08-18T02:06:07.153Z,54.10
2022-08-18T02:08:34.692Z,53.90
2022-08-18T02:11:01.515Z,54.08
2022-08-18T02:13:28.011Z,53.89
2022-08-18T02:15:54.457Z,54.25
2022-08-18T02:18:47.257Z,54.19
2022-08-18T02:21:19.279Z,54.27
2022-08-18T02:23:52.752Z,54.14
2022-08-18T02:26:20.700Z,54.33
2022-08-18T02:28:47.258Z,54.31
2022-08-18T02:31:16.788Z,54.34
2022-08-18T02:33:51.642Z,54.40
2022-08-18T02:36:19.628Z,54.37
2022-08-18T02:38:54.876Z,54.48
2022-08-18T02:41:29.374Z,54.60
2022-08-18T02:43:56.559Z,55.07
2022-08-18T02:46:23.488Z,55.01
2022-08-18T02:48:52.220Z,55.13
2022-08-18T02:51:18.986Z,55.49
2022-08-18T02:53:46.892Z,55.53
2022-08-18T02:56:41.639Z,56.20
2022-08-18T02:59:20.031Z,55.85
2022-08-18T03:01:48.877Z,55.99
2022-08-18T03:04:21.119Z,55.92
2022-08-18T03:06:49.475Z,56.36
2022-08-18T03:09:17.579Z,56.15
2022-08-18T03:11:44.990Z,56.01
2022-08-18T03:14:11.848Z,56.29
2022-08-18T03:16:52.849Z,56.15
2022-08-18T03:19:22.801Z,56.42
2022-08-18T03:21:49.230Z,56.52
2022-08-18T03:24:22.494Z,56.71
2022-08-18T03:26:49.962Z,56.80
2022-08-18T03:29:16.584Z,56.61
2022-08-18T03:31:43.555Z,56.95
2022-08-18T03:34:10.098Z,57.08
2022-08-18T03:36:37.023Z,57.50
2022-08-18T03:39:09.517Z,57.20
2022-08-18T03:41:57.655Z,57.45
2022-08-18T03:44:25.086Z,58.18
2022-08-18T03:46:52.060Z,59.55
2022-08-18T03:49:20.360Z,59.42
2022-08-18T03:51:47.433Z,59.63
2022-08-18T03:54:16.423Z,60.04
2022-08-18T03:56:43.997Z,60.70
2022-08-18T03:59:14.612Z,60.85
2022-08-18T04:01:42.170Z,61.12
2022-08-18T04:04:11.679Z,61.27
2022-08-18T04:06:45.218Z,61.29
2022-08-18T04:09:14.697Z,61.47
2022-08-18T04:11:44.964Z,61.53
2022-08-18T04:14:13.373Z,62.43
2022-08-18T04:16:40.611Z,62.50
2022-08-18T04:19:09.086Z,63.00
2022-08-18T04:21:39.393Z,63.37
2022-08-18T04:24:07.373Z,63.95
2022-08-18T04:26:36.709Z,64.59
2022-08-18T04:29:04.432Z,65.41
2022-08-18T04:31:31.413Z,65.48
2022-08-18T04:33:59.488Z,66.01
2022-08-18T04:36:27.097Z,66.39
2022-08-18T04:38:56.375Z,67.60
2022-08-18T04:41:26.223Z,68.46
2022-08-18T04:43:54.444Z,70.16
2022-08-18T04:46:24.074Z,71.12
2022-08-18T04:48:50.915Z,70.94
2022-08-18T04:52:37.601Z,71.43
2022-08-18T04:54:06.207Z,72.05
2022-08-18T04:56:35.240Z,73.11
2022-08-18T04:59:07.013Z,72.91
2022-08-18T05:01:39.356Z,72.98
2022-08-18T05:04:06.157Z,73.16
2022-08-18T05:06:32.940Z,73.68
2022-08-18T05:09:01.926Z,73.66
2022-08-18T05:11:31.589Z,74.02
2022-08-18T05:13:58.135Z,74.10
2022-08-18T05:16:27.855Z,74.86
2022-08-18T05:18:54.736Z,74.58
2022-08-18T05:21:24.388Z,74.60
2022-08-18T05:23:51.232Z,74.46
2022-08-18T05:26:18.703Z,74.19
2022-08-18T05:28:46.094Z,74.48
2022-08-18T05:31:19.530Z,74.38
2022-08-18T05:33:46.663Z,74.14
2022-08-18T05:36:25.092Z,74.09
2022-08-18T05:39:19.354Z,74.24
2022-08-18T05:41:55.791Z,73.77
2022-08-18T05:44:26.013Z,73.56
2022-08-18T05:49:21.821Z,73.30
2022-08-18T05:51:51.964Z,73.25
2022-08-18T05:54:37.946Z,72.87
2022-08-18T05:57:10.160Z,72.87
2022-08-18T05:59:39.125Z,73.03
2022-08-18T06:02:16.310Z,72.96
2022-08-18T06:04:49.094Z,72.76
2022-08-18T06:07:19.102Z,72.21
2022-08-18T06:09:50.678Z,72.35
2022-08-18T06:12:46.640Z,71.83
2022-08-18T06:15:25.764Z,71.82
2022-08-18T06:18:04.753Z,71.48
2022-08-18T06:20:45.901Z,71.19
2022-08-18T06:23:25.947Z,70.82
2022-08-18T06:26:16.913Z,70.71
2022-08-18T06:28:46.585Z,70.79
2022-08-18T06:31:24.753Z,70.55
2022-08-18T06:34:03.602Z,70.33
2022-08-18T06:36:38.989Z,70.26
2022-08-18T06:39:27.062Z,70.13
2022-08-18T06:41:54.686Z,70.11
2022-08-18T06:44:28.631Z,70.20
2022-08-18T06:47:10.858Z,69.92
2022-08-18T06:49:51.289Z,69.93
2022-08-18T06:52:38.699Z,69.66
2022-08-18T06:55:09.094Z,69.76
2022-08-18T06:57:52.921Z,69.25
2022-08-18T07:00:19.472Z,69.08
2022-08-18T07:02:50.993Z,69.23
2022-08-18T07:05:21.971Z,68.80
2022-08-18T07:08:04.377Z,68.79
2022-08-18T07:10:43.779Z,68.23
2022-08-18T07:13:13.147Z,68.29
2022-08-18T07:15:40.180Z,68.01
2022-08-18T07:18:08.353Z,67.97
2022-08-18T07:20:46.440Z,68.01
2022-08-18T07:23:28.180Z,67.80
2022-08-18T07:26:08.660Z,67.26
2022-08-18T07:28:50.176Z,67.40
2022-08-18T07:31:37.746Z,66.78
2022-08-18T07:34:12.449Z,66.53
2022-08-18T07:36:50.638Z,66.06
2022-08-18T07:39:27.738Z,65.75
2022-08-18T07:42:33.075Z,65.57
2022-08-18T07:45:12.653Z,65.09
2022-08-18T07:47:48.641Z,64.95
2022-08-18T07:50:26.988Z,64.88
2022-08-18T07:53:29.774Z,64.50
2022-08-18T07:56:03.195Z,64.64
2022-08-18T07:58:36.295Z,64.37
2022-08-18T08:01:13.604Z,63.83
2022-08-18T08:04:04.826Z,63.97
2022-08-18T08:06:55.407Z,63.79
2022-08-18T08:09:42.552Z,63.76
2022-08-18T08:12:31.561Z,62.95
2022-08-18T08:15:08.159Z,62.69
2022-08-18T08:17:40.378Z,62.27
2022-08-18T08:20:13.824Z,62.01
2022-08-18T08:22:53.502Z,61.99
2022-08-18T08:25:46.482Z,62.05
2022-08-18T08:28:28.643Z,62.08
2022-08-18T08:31:33.146Z,61.65
2022-08-18T08:34:12.138Z,61.97
2022-08-18T08:36:44.949Z,61.66
2022-08-18T08:39:19.257Z,61.63
2022-08-18T08:41:50.651Z,61.55
2022-08-18T08:44:25.051Z,61.56
2022-08-18T08:46:56.917Z,60.92
2022-08-18T08:49:53.165Z,60.57
2022-08-18T08:52:40.684Z,60.49
2022-08-18T08:55:12.429Z,59.68
2022-08-18T08:57:56.125Z,59.13
2022-08-18T09:00:22.645Z,58.38
2022-08-18T09:03:06.742Z,58.40
2022-08-18T09:06:08.475Z,57.91
2022-08-18T09:09:06.819Z,57.76
2022-08-18T09:11:49.292Z,57.90
2022-08-18T09:14:47.562Z,56.90
2022-08-18T09:17:35.385Z,57.11
2022-08-18T09:20:17.476Z,56.76
2022-08-18T09:22:57.096Z,56.73
2022-08-18T09:25:39.188Z,56.32
2022-08-18T09:28:14.660Z,56.00
2022-08-18T09:31:08.612Z,55.18
2022-08-18T09:33:38.462Z,55.12
2022-08-18T09:36:25.960Z,54.19
2022-08-18T09:39:20.612Z,53.91
2022-08-18T09:41:54.991Z,53.46
2022-08-18T09:44:48.180Z,53.32
2022-08-18T09:47:22.002Z,53.45
2022-08-18T09:50:27.522Z,53.19
2022-08-18T09:52:59.166Z,52.61
2022-08-18T09:55:30.809Z,53.06
2022-08-18T09:58:22.941Z,52.49
2022-08-18T10:01:19.577Z,53.07
2022-08-18T10:04:14.751Z,52.87
2022-08-18T10:06:43.014Z,52.56
2022-08-18T10:09:36.517Z,51.53
2022-08-18T10:12:15.873Z,50.65
2022-08-18T10:15:34.462Z,49.82
2022-08-18T10:18:44.869Z,50.07
2022-08-18T10:21:18.830Z,49.83
2022-08-18T10:23:58.171Z,49.60
2022-08-18T10:26:37.328Z,49.38
2022-08-18T10:29:09.619Z,48.60
2022-08-18T10:31:54.817Z,47.87
2022-08-18T10:34:52.177Z,47.43
2022-08-18T10:37:26.491Z,47.46
2022-08-18T10:39:59.325Z,46.83
2022-08-18T10:42:31.478Z,46.48
2022-08-18T10:45:22.111Z,46.25
2022-08-18T10:48:29.286Z,45.91
2022-08-18T10:51:28.236Z,45.91
2022-08-18T10:54:19.697Z,46.53
2022-08-18T10:56:52.832Z,47.08
2022-08-18T10:59:50.690Z,46.81
2022-08-18T11:02:23.618Z,47.08
2022-08-18T11:04:59.223Z,47.45
2022-08-18T11:07:29.175Z,47.18
2022-08-18T11:10:27.890Z,48.69
2022-08-18T11:13:23.940Z,48.95
2022-08-18T11:16:13.695Z,48.81
2022-08-18T11:18:43.114Z,48.13
2022-08-18T11:21:41.967Z,47.67
2022-08-18T11:24:13.452Z,47.87
2022-08-18T11:26:52.823Z,48.83
2022-08-18T11:29:24.737Z,49.10
2022-08-18T11:31:59.638Z,49.45
2022-08-18T11:34:34.821Z,48.86
2022-08-18T11:37:14.437Z,48.49
2022-08-18T11:39:49.372Z,48.62
2022-08-18T11:42:25.119Z,48.50
2022-08-18T11:44:54.878Z,48.65
2022-08-18T11:50:12.610Z,49.00
2022-08-18T11:52:53.644Z,49.60
2022-08-18T11:55:29.621Z,48.97
2022-08-18T11:57:59.138Z,48.54
2022-08-18T12:00:48.802Z,46.97
2022-08-18T12:03:28.404Z,47.09
2022-08-18T12:05:58.995Z,47.59
2022-08-18T12:08:56.759Z,48.02
2022-08-18T12:11:27.122Z,47.98
2022-08-18T12:14:01.850Z,47.58
2022-08-18T12:16:48.450Z,47.40
2022-08-18T12:19:17.463Z,47.06
2022-08-18T12:21:51.074Z,46.10
2022-08-18T12:24:26.394Z,45.89
2022-08-18T12:27:02.219Z,45.93
2022-08-18T12:29:47.039Z,45.78
2022-08-18T12:32:18.135Z,45.51
2022-08-18T12:35:05.293Z,45.26
2022-08-18T12:37:58.369Z,44.49
2022-08-18T12:40:20.941Z,42.92
2022-08-18T12:42:49.463Z,43.09
2022-08-18T12:45:16.445Z,42.43
2022-08-18T12:47:42.912Z,42.59
2022-08-18T12:50:09.537Z,42.80
2022-08-18T12:52:37.075Z,43.14
2022-08-18T12:55:08.728Z,43.55
2022-08-18T12:57:53.367Z,44.99
2022-08-18T13:00:21.161Z,44.74
2022-08-18T13:02:54.869Z,44.57
2022-08-18T13:05:26.550Z,44.17
2022-08-18T13:08:04.514Z,44.15
2022-08-18T13:10:42.981Z,43.55
2022-08-18T13:13:12.034Z,43.29
2022-08-18T13:15:38.674Z,43.84
2022-08-18T13:18:05.284Z,43.27
2022-08-18T13:20:31.822Z,44.04
2022-08-18T13:22:58.293Z,43.94
2022-08-18T13:25:32.293Z,44.02
2022-08-18T13:28:06.087Z,43.58
2022-08-18T13:30:33.117Z,42.96
2022-08-18T13:33:34.679Z,42.94
2022-08-18T13:35:52.054Z,42.37
2022-08-18T13:38:26.090Z,42.66
2022-08-18T13:40:57.679Z,42.82
2022-08-18T13:43:31.988Z,43.04
2022-08-18T13:45:59.818Z,43.13
2022-08-18T13:48:28.330Z,42.10
2022-08-18T13:50:58.200Z,42.07
2022-08-18T13:53:27.648Z,42.72
2022-08-18T13:55:54.789Z,43.73
2022-08-18T13:58:21.396Z,43.98
2022-08-18T14:01:05.723Z,44.21
2022-08-18T14:03:47.347Z,44.44
2022-08-18T14:06:14.807Z,43.49
2022-08-18T14:08:41.390Z,43.58
2022-08-18T14:11:09.474Z,43.71
2022-08-18T14:13:38.281Z,43.27
2022-08-18T14:16:18.937Z,43.84
2022-08-18T14:19:10.256Z,44.08
2022-08-18T14:22:00.268Z,44.32
2022-08-18T14:24:48.616Z,44.74
2022-08-18T14:27:16.175Z,44.84
2022-08-18T14:29:45.458Z,44.46
2022-08-18T14:32:18.047Z,44.03
2022-08-18T14:34:50.808Z,43.89
2022-08-18T14:37:17.791Z,43.56
2022-08-18T14:39:48.069Z,43.59
2022-08-18T14:42:19.010Z,43.80
2022-08-18T14:44:45.789Z,43.85
2022-08-18T14:47:12.362Z,43.86
2022-08-18T14:49:48.166Z,43.86
2022-08-18T14:52:14.724Z,43.91
2022-08-18T14:54:41.283Z,43.71
2022-08-18T14:57:12.856Z,43.85
2022-08-18T14:59:41.048Z,43.82
2022-08-18T15:02:11.256Z,43.59
2022-08-18T15:04:55.788Z,42.78
2022-08-18T15:07:24.421Z,42.24
2022-08-18T15:09:50.853Z,42.38
2022-08-18T15:12:37.517Z,43.29
2022-08-18T15:15:08.453Z,43.41
2022-08-18T15:17:38.263Z,43.86
2022-08-18T15:20:06.574Z,43.81
2022-08-18T15:22:56.822Z,44.22
2022-08-18T15:25:41.909Z,44.51
2022-08-18T15:28:16.383Z,44.13
2022-08-18T15:30:44.855Z,44.52
2022-08-18T15:33:15.441Z,44.40
2022-08-18T15:35:44.394Z,44.69
2022-08-18T15:38:14.807Z,44.92
2022-08-18T15:40:49.445Z,45.21
2022-08-18T15:43:25.286Z,45.87
2022-08-18T15:45:57.756Z,45.66
2022-08-18T15:48:26.422Z,45.77
2022-08-18T15:50:53.085Z,46.05
2022-08-18T15:53:22.531Z,45.65
2022-08-18T15:55:50.298Z,45.41
2022-08-18T15:58:22.415Z,45.30
2022-08-18T16:00:53.099Z,45.31
2022-08-18T16:03:21.190Z,45.38
2022-08-18T16:05:48.063Z,45.73
2022-08-18T16:08:18.368Z,45.48
2022-08-18T16:10:45.191Z,45.76
2022-08-18T16:13:14.422Z,45.75
2022-08-18T16:15:42.320Z,46.30
2022-08-18T16:18:10.653Z,46.08
2022-08-18T16:20:37.710Z,46.10
2022-08-18T16:23:05.378Z,46.43
2022-08-18T16:25:32.001Z,46.88
2022-08-18T16:27:59.680Z,46.89
2022-08-18T16:30:27.818Z,47.49
2022-08-18T16:32:54.516Z,47.56
2022-08-18T16:35:22.315Z,47.69
2022-08-18T16:37:49.712Z,47.88
2022-08-18T16:40:18.823Z,47.70
2022-08-18T16:42:46.105Z,47.97
2022-08-18T16:45:14.698Z,48.04
2022-08-18T16:47:41.397Z,48.66
2022-08-18T16:50:10.733Z,48.82
2022-08-18T16:52:37.217Z,49.01
2022-08-18T16:55:04.552Z,49.14
2022-08-18T16:57:54.794Z,49.34
2022-08-18T17:00:41.386Z,49.69
2022-08-18T17:03:26.783Z,50.02
2022-08-18T17:06:05.086Z,50.18
2022-08-18T17:08:34.087Z,50.28
2022-08-18T17:11:06.014Z,50.31
2022-08-18T17:13:33.256Z,50.68
2022-08-18T17:15:59.711Z,50.61
2022-08-18T17:18:27.162Z,50.82
2022-08-18T17:20:55.524Z,50.82
2022-08-18T17:23:22.369Z,50.79
2022-08-18T17:25:49.505Z,51.02
2022-08-18T17:28:19.149Z,51.14
2022-08-18T17:30:51.331Z,51.74
2022-08-18T17:33:32.798Z,51.69
2022-08-18T17:36:03.717Z,51.95
2022-08-18T17:38:54.517Z,52.46
2022-08-18T17:41:21.252Z,52.71
2022-08-18T17:43:48.123Z,52.71
2022-08-18T17:46:27.484Z,52.96
2022-08-18T17:49:03.430Z,52.90
2022-08-18T17:51:35.836Z,53.32
2022-08-18T17:54:06.325Z,53.62
2022-08-18T17:56:44.738Z,53.84
2022-08-18T17:59:46.531Z,54.67
2022-08-18T18:02:29.154Z,54.87
2022-08-18T18:04:59.611Z,55.22
2022-08-18T18:07:32.772Z,55.33
2022-08-18T18:10:04.881Z,55.62
2022-08-18T18:12:33.744Z,55.99
2022-08-18T18:15:02.069Z,56.08
2022-08-18T18:17:31.061Z,56.20
2022-08-18T18:20:15.579Z,56.69
2022-08-18T18:22:44.028Z,56.33
2022-08-18T18:25:12.707Z,56.65
2022-08-18T18:27:47.202Z,56.91
2022-08-18T18:30:27.817Z,56.90
2022-08-18T18:33:03.549Z,57.10
2022-08-18T18:35:54.139Z,57.36
2022-08-18T18:38:31.871Z,57.30
2022-08-18T18:41:13.543Z,57.17
2022-08-18T18:43:43.486Z,57.19
2022-08-18T18:46:22.847Z,57.34
2022-08-18T18:49:03.750Z,57.47
2022-08-18T18:51:43.741Z,57.44
2022-08-18T18:54:49.790Z,57.44
2022-08-18T18:57:40.894Z,57.45
2022-08-18T19:00:21.105Z,57.52
2022-08-18T19:03:07.002Z,57.42
2022-08-18T19:05:55.270Z,57.36
2022-08-18T19:08:35.884Z,57.39
2022-08-18T19:11:09.069Z,57.84
2022-08-18T19:13:41.002Z,58.13
2022-08-18T19:16:23.201Z,57.97
2022-08-18T19:18:57.789Z,58.03
2022-08-18T19:22:04.739Z,58.77
2022-08-18T19:24:29.263Z,58.91
2022-08-18T19:26:59.943Z,59.26
2022-08-18T19:29:30.231Z,59.91
2022-08-18T19:32:11.426Z,60.22
2022-08-18T19:34:51.567Z,60.16
2022-08-18T19:37:57.325Z,61.94
2022-08-18T19:40:40.312Z,62.63
2022-08-18T19:43:12.789Z,63.33
2022-08-18T19:46:01.300Z,64.76
2022-08-18T19:48:34.815Z,64.65
2022-08-18T19:51:06.834Z,65.44
2022-08-18T19:53:58.902Z,65.68
2022-08-18T19:56:33.897Z,66.51
2022-08-18T19:59:23.284Z,67.00
2022-08-18T20:01:52.082Z,67.60
2022-08-18T20:04:24.521Z,68.05
2022-08-18T20:06:53.792Z,68.04
2022-08-18T20:09:27.708Z,68.14
2022-08-18T20:12:39.254Z,69.46
2022-08-18T20:15:17.425Z,70.26
2022-08-18T20:18:04.279Z,70.69
2022-08-18T20:20:40.169Z,70.80
2022-08-18T20:23:30.046Z,72.35
2022-08-18T20:25:56.478Z,73.31
2022-08-18T20:28:35.816Z,72.64
2022-08-18T20:31:14.256Z,73.75
2022-08-18T20:33:46.082Z,74.55
2022-08-18T20:36:19.173Z,75.55
2022-08-18T20:38:53.082Z,77.13
2022-08-18T20:41:28.696Z,76.87
2022-08-18T20:44:21.872Z,76.58
2022-08-18T20:47:36.669Z,77.28
2022-08-18T20:50:42.762Z,76.99
2022-08-18T20:53:18.969Z,77.22
2022-08-18T20:55:56.865Z,77.67
2022-08-18T20:58:27.305Z,77.96
2022-08-18T21:00:57.029Z,77.99
2022-08-18T21:03:35.550Z,78.06
2022-08-18T21:06:02.918Z,78.19
2022-08-18T21:08:31.657Z,78.48
2022-08-18T21:11:01.801Z,79.84
2022-08-18T21:13:36.116Z,80.17
2022-08-18T21:16:02.867Z,80.25
2022-08-18T21:18:29.378Z,79.88
2022-08-18T21:20:58.314Z,80.07
2022-08-18T21:23:29.684Z,80.30
2022-08-18T21:25:59.597Z,80.72
2022-08-18T21:28:28.231Z,79.99
2022-08-18T21:31:42.177Z,80.17
2022-08-18T21:33:51.015Z,79.91
2022-08-18T21:36:18.708Z,79.74
2022-08-18T21:39:05.215Z,79.66
2022-08-18T21:41:33.632Z,79.85
2022-08-18T21:44:07.169Z,79.34
2022-08-18T21:46:33.717Z,79.36
2022-08-18T21:49:02.348Z,78.77
2022-08-18T21:51:32.575Z,78.11
2022-08-18T21:53:59.909Z,78.21
2022-08-18T21:56:29.399Z,76.93
2022-08-18T21:59:08.050Z,76.08
2022-08-18T22:01:35.546Z,76.19
2022-08-18T22:04:22.325Z,76.46
2022-08-18T22:06:52.019Z,76.75
2022-08-18T22:09:41.295Z,77.04
2022-08-18T22:12:48.451Z,77.23
2022-08-18T22:15:35.758Z,77.44
2022-08-18T22:18:08.236Z,77.79
2022-08-18T22:20:59.053Z,76.99
2022-08-18T22:23:51.230Z,76.09
2022-08-18T22:26:17.566Z,76.09
2022-08-18T22:28:54.561Z,76.24
2022-08-18T22:31:23.156Z,76.45
2022-08-18T22:33:51.011Z,76.41
2022-08-18T22:36:20.650Z,76.91
2022-08-18T22:38:47.981Z,76.80
2022-08-18T22:41:15.633Z,76.83
2022-08-18T22:43:42.120Z,77.09
2022-08-18T22:46:08.665Z,77.31
2022-08-18T22:48:35.088Z,77.72
2022-08-18T22:51:01.582Z,77.75
2022-08-18T22:53:28.627Z,78.26
2022-08-18T22:55:57.295Z,78.35
2022-08-18T22:58:27.979Z,78.83
2022-08-18T23:00:58.208Z,78.59
2022-08-18T23:03:34.542Z,79.38
2022-08-18T23:06:09.550Z,79.87
2022-08-18T23:08:54.972Z,80.32
2022-08-18T23:11:23.521Z,80.79
2022-08-18T23:13:50.174Z,80.75
2022-08-18T23:16:31.954Z,81.14
2022-08-18T23:19:01.890Z,81.78
2022-08-18T23:21:34.189Z,82.18
2022-08-18T23:24:03.669Z,82.58
2022-08-18T23:26:30.589Z,82.43
2022-08-18T23:28:57.230Z,82.91
2022-08-18T23:31:23.761Z,84.06
2022-08-18T23:33:50.234Z,84.32
2022-08-18T23:36:17.747Z,84.66
2022-08-18T23:38:44.205Z,84.75
2022-08-18T23:41:13.179Z,84.91
2022-08-18T23:43:39.657Z,85.21
2022-08-18T23:46:16.763Z,85.77
2022-08-18T23:48:44.465Z,85.97
2022-08-18T23:51:10.931Z,86.02
2022-08-18T23:53:38.471Z,86.16
2022-08-18T23:56:06.110Z,86.28
2022-08-18T23:58:32.551Z,86.65
